sensor_id;sensor_type;location;lat;lon;timestamp;pressure;altitude;pressure_sealevel;temperature;humidity
37892;BME280;45797;47.466;9.486;2023-04-24T00:02:26;95022.72;;;12.52;65.80
37892;BME280;45797;47.466;9.486;2023-04-24T00:07:27;95023.25;;;12.56;65.56
37892;BME280;45797;47.466;9.486;2023-04-24T00:12:27;95007.34;;;12.57;65.73
37892;BME280;45797;47.466;9.486;2023-04-24T00:17:27;95021.16;;;12.59;65.56
37892;BME280;45797;47.466;9.486;2023-04-24T00:22:28;95014.00;;;12.62;65.63
37892;BME280;45797;47.466;9.486;2023-04-24T00:27:28;95000.84;;;12.62;66.37
37892;BME280;45797;47.466;9.486;2023-04-24T00:32:28;95008.59;;;12.63;65.50
37892;BME280;45797;47.466;9.486;2023-04-24T00:37:29;95004.16;;;12.64;65.50
37892;BME280;45797;47.466;9.486;2023-04-24T00:42:29;95000.72;;;12.63;65.57
37892;BME280;45797;47.466;9.486;2023-04-24T00:47:29;94999.59;;;12.66;65.16
37892;BME280;45797;47.466;9.486;2023-04-24T00:52:30;94996.66;;;12.69;65.51
37892;BME280;45797;47.466;9.486;2023-04-24T00:57:31;95000.00;;;12.71;65.28
37892;BME280;45797;47.466;9.486;2023-04-24T01:02:32;95009.38;;;12.73;65.27
37892;BME280;45797;47.466;9.486;2023-04-24T01:07:34;95012.69;;;12.75;65.17
37892;BME280;45797;47.466;9.486;2023-04-24T01:12:36;95005.63;;;12.76;65.28
37892;BME280;45797;47.466;9.486;2023-04-24T01:17:37;95000.69;;;12.73;65.17
37892;BME280;45797;47.466;9.486;2023-04-24T01:22:38;95007.19;;;12.69;65.46
37892;BME280;45797;47.466;9.486;2023-04-24T01:27:38;94996.00;;;12.67;65.49
37892;BME280;45797;47.466;9.486;2023-04-24T01:32:38;95000.03;;;12.61;65.54
37892;BME280;45797;47.466;9.486;2023-04-24T01:37:40;95002.25;;;12.56;65.58
37892;BME280;45797;47.466;9.486;2023-04-24T01:42:41;95006.66;;;12.55;65.54
37892;BME280;45797;47.466;9.486;2023-04-24T01:47:41;95015.81;;;12.51;65.52
37892;BME280;45797;47.466;9.486;2023-04-24T01:52:41;94993.41;;;12.47;65.70
37892;BME280;45797;47.466;9.486;2023-04-24T01:57:43;95001.72;;;12.43;65.91
37892;BME280;45797;47.466;9.486;2023-04-24T02:02:44;95003.66;;;12.41;65.87
37892;BME280;45797;47.466;9.486;2023-04-24T02:07:44;94995.25;;;12.37;65.65
37892;BME280;45797;47.466;9.486;2023-04-24T02:12:45;94999.97;;;12.34;65.82
37892;BME280;45797;47.466;9.486;2023-04-24T02:17:45;94994.84;;;12.32;65.51
37892;BME280;45797;47.466;9.486;2023-04-24T02:22:45;95017.09;;;12.28;65.82
37892;BME280;45797;47.466;9.486;2023-04-24T02:27:45;95017.63;;;12.22;65.68
37892;BME280;45797;47.466;9.486;2023-04-24T02:32:45;95016.13;;;12.10;65.98
37892;BME280;45797;47.466;9.486;2023-04-24T02:37:46;95000.81;;;12.05;65.96
37892;BME280;45797;47.466;9.486;2023-04-24T02:42:46;95001.50;;;11.97;66.21
37892;BME280;45797;47.466;9.486;2023-04-24T02:47:46;95002.88;;;11.92;66.34
37892;BME280;45797;47.466;9.486;2023-04-24T02:52:46;95010.06;;;11.90;66.47
37892;BME280;45797;47.466;9.486;2023-04-24T02:57:46;95011.03;;;11.89;66.49
37892;BME280;45797;47.466;9.486;2023-04-24T03:02:46;94999.84;;;11.87;66.22
37892;BME280;45797;47.466;9.486;2023-04-24T03:07:47;94991.16;;;11.86;66.58
37892;BME280;45797;47.466;9.486;2023-04-24T03:12:47;95000.81;;;11.86;66.37
37892;BME280;45797;47.466;9.486;2023-04-24T03:17:47;94985.19;;;11.84;66.35
37892;BME280;45797;47.466;9.486;2023-04-24T03:22:47;94984.38;;;11.84;66.20
37892;BME280;45797;47.466;9.486;2023-04-24T03:27:48;94978.28;;;11.83;66.47
37892;BME280;45797;47.466;9.486;2023-04-24T03:33:01;94983.69;;;11.82;66.54
37892;BME280;45797;47.466;9.486;2023-04-24T03:38:05;94982.72;;;11.83;66.30
37892;BME280;45797;47.466;9.486;2023-04-24T03:43:21;94984.50;;;11.82;66.54
37892;BME280;45797;47.466;9.486;2023-04-24T03:48:21;94990.34;;;11.86;66.22
37892;BME280;45797;47.466;9.486;2023-04-24T03:53:24;94985.09;;;11.86;66.24
37892;BME280;45797;47.466;9.486;2023-04-24T03:58:25;94990.44;;;11.84;66.08
37892;BME280;45797;47.466;9.486;2023-04-24T04:03:27;94990.59;;;11.83;66.26
37892;BME280;45797;47.466;9.486;2023-04-24T04:08:27;94995.69;;;11.84;66.20
37892;BME280;45797;47.466;9.486;2023-04-24T04:13:28;94997.09;;;11.88;65.79
37892;BME280;45797;47.466;9.486;2023-04-24T04:18:28;94993.50;;;11.89;65.69
37892;BME280;45797;47.466;9.486;2023-04-24T04:23:28;95013.22;;;11.93;65.60
37892;BME280;45797;47.466;9.486;2023-04-24T04:28:39;95005.50;;;11.92;65.75
37892;BME280;45797;47.466;9.486;2023-04-24T04:33:39;95012.41;;;11.93;65.56
37892;BME280;45797;47.466;9.486;2023-04-24T04:38:41;95023.72;;;11.93;65.42
37892;BME280;45797;47.466;9.486;2023-04-24T04:43:53;95006.06;;;11.95;65.35
37892;BME280;45797;47.466;9.486;2023-04-24T04:48:54;95010.34;;;11.96;65.26
37892;BME280;45797;47.466;9.486;2023-04-24T04:53:54;95011.19;;;11.97;65.16
37892;BME280;45797;47.466;9.486;2023-04-24T04:58:55;95023.72;;;12.03;64.89
37892;BME280;45797;47.466;9.486;2023-04-24T05:03:55;95026.63;;;12.10;64.74
37892;BME280;45797;47.466;9.486;2023-04-24T05:08:56;95041.84;;;12.16;64.41
37892;BME280;45797;47.466;9.486;2023-04-24T05:14:08;95053.31;;;12.24;64.23
37892;BME280;45797;47.466;9.486;2023-04-24T05:19:11;95048.72;;;12.36;64.06
37892;BME280;45797;47.466;9.486;2023-04-24T05:24:14;95057.56;;;12.45;63.70
37892;BME280;45797;47.466;9.486;2023-04-24T05:29:33;95065.72;;;12.51;63.65
37892;BME280;45797;47.466;9.486;2023-04-24T05:34:33;95075.94;;;12.54;63.73
37892;BME280;45797;47.466;9.486;2023-04-24T05:39:34;95091.03;;;12.52;63.85
37892;BME280;45797;47.466;9.486;2023-04-24T05:44:35;95108.44;;;12.53;63.88
37892;BME280;45797;47.466;9.486;2023-04-24T05:49:35;95115.91;;;12.48;63.88
37892;BME280;45797;47.466;9.486;2023-04-24T05:54:35;95127.50;;;12.36;64.21
37892;BME280;45797;47.466;9.486;2023-04-24T05:59:37;95148.66;;;12.25;64.44
37892;BME280;45797;47.466;9.486;2023-04-24T06:04:41;95152.50;;;12.11;64.43
37892;BME280;45797;47.466;9.486;2023-04-24T06:09:41;95184.41;;;11.97;65.22
37892;BME280;45797;47.466;9.486;2023-04-24T06:14:42;95158.97;;;11.97;65.01
37892;BME280;45797;47.466;9.486;2023-04-24T06:19:51;95148.63;;;12.06;64.81
37892;BME280;45797;47.466;9.486;2023-04-24T06:24:52;95169.34;;;12.09;64.33
37892;BME280;45797;47.466;9.486;2023-04-24T06:29:52;95182.59;;;11.97;64.71
37892;BME280;45797;47.466;9.486;2023-04-24T06:34:54;95177.16;;;11.80;65.12
37892;BME280;45797;47.466;9.486;2023-04-24T06:39:55;95179.03;;;11.68;65.38
37892;BME280;45797;47.466;9.486;2023-04-24T06:44:55;95181.88;;;11.65;65.48
37892;BME280;45797;47.466;9.486;2023-04-24T06:49:55;95172.13;;;11.67;65.06
37892;BME280;45797;47.466;9.486;2023-04-24T06:55:00;95178.81;;;11.81;64.88
37892;BME280;45797;47.466;9.486;2023-04-24T07:00:01;95196.25;;;11.91;64.65
37892;BME280;45797;47.466;9.486;2023-04-24T07:05:01;95202.91;;;11.95;64.71
37892;BME280;45797;47.466;9.486;2023-04-24T07:10:01;95199.88;;;12.10;64.62
37892;BME280;45797;47.466;9.486;2023-04-24T07:15:05;95219.28;;;12.28;63.85
37892;BME280;45797;47.466;9.486;2023-04-24T07:20:06;95230.66;;;12.57;63.05
37892;BME280;45797;47.466;9.486;2023-04-24T07:25:09;95225.25;;;12.69;63.84
37892;BME280;45797;47.466;9.486;2023-04-24T07:30:09;95235.91;;;12.77;62.98
37892;BME280;45797;47.466;9.486;2023-04-24T07:35:10;95229.28;;;12.73;63.29
37892;BME280;45797;47.466;9.486;2023-04-24T07:40:10;95225.25;;;12.69;63.50
37892;BME280;45797;47.466;9.486;2023-04-24T07:45:10;95223.91;;;12.84;63.30
37892;BME280;45797;47.466;9.486;2023-04-24T07:50:11;95229.84;;;12.96;63.11
37892;BME280;45797;47.466;9.486;2023-04-24T07:55:12;95230.66;;;13.06;62.91
37892;BME280;45797;47.466;9.486;2023-04-24T08:00:12;95220.44;;;13.22;62.82
37892;BME280;45797;47.466;9.486;2023-04-24T08:05:13;95217.91;;;13.40;62.15
37892;BME280;45797;47.466;9.486;2023-04-24T08:10:13;95226.72;;;13.58;61.95
37892;BME280;45797;47.466;9.486;2023-04-24T08:15:13;95216.09;;;13.87;61.29
37892;BME280;45797;47.466;9.486;2023-04-24T08:20:14;95227.06;;;14.10;60.81
37892;BME280;45797;47.466;9.486;2023-04-24T08:25:15;95211.31;;;14.00;60.98
37892;BME280;45797;47.466;9.486;2023-04-24T08:30:16;95221.50;;;13.86;61.51
37892;BME280;45797;47.466;9.486;2023-04-24T08:35:16;95233.31;;;13.72;61.81
37892;BME280;45797;47.466;9.486;2023-04-24T08:40:16;95240.38;;;13.71;61.98
37892;BME280;45797;47.466;9.486;2023-04-24T08:45:16;95246.81;;;13.96;61.13
37892;BME280;45797;47.466;9.486;2023-04-24T08:50:17;95249.25;;;14.08;60.58
37892;BME280;45797;47.466;9.486;2023-04-24T08:55:17;95270.00;;;14.20;60.46
37892;BME280;45797;47.466;9.486;2023-04-24T09:00:20;95291.63;;;13.87;60.78
37892;BME280;45797;47.466;9.486;2023-04-24T09:05:22;95338.44;;;12.96;62.44
37892;BME280;45797;47.466;9.486;2023-04-24T09:10:24;95352.38;;;12.27;63.80
37892;BME280;45797;47.466;9.486;2023-04-24T09:15:25;95339.56;;;11.83;64.52
37892;BME280;45797;47.466;9.486;2023-04-24T09:20:26;95327.25;;;11.21;65.94
37892;BME280;45797;47.466;9.486;2023-04-24T09:25:34;95340.41;;;11.09;66.09
37892;BME280;45797;47.466;9.486;2023-04-24T09:30:35;95348.22;;;11.21;65.44
37892;BME280;45797;47.466;9.486;2023-04-24T09:35:35;95366.03;;;11.06;65.66
37892;BME280;45797;47.466;9.486;2023-04-24T09:40:36;95358.63;;;11.11;65.73
37892;BME280;45797;47.466;9.486;2023-04-24T09:45:37;95354.94;;;11.34;65.14
37892;BME280;45797;47.466;9.486;2023-04-24T09:50:38;95355.22;;;11.73;64.24
37892;BME280;45797;47.466;9.486;2023-04-24T09:55:45;95350.81;;;12.15;63.13
37892;BME280;45797;47.466;9.486;2023-04-24T10:00:46;95342.88;;;12.36;63.00
37892;BME280;45797;47.466;9.486;2023-04-24T10:05:46;95346.81;;;12.51;62.70
37892;BME280;45797;47.466;9.486;2023-04-24T10:10:47;95359.22;;;12.49;62.77
37892;BME280;45797;47.466;9.486;2023-04-24T10:15:47;95347.75;;;12.50;62.94
37892;BME280;45797;47.466;9.486;2023-04-24T10:20:48;95359.13;;;12.61;62.61
37892;BME280;45797;47.466;9.486;2023-04-24T10:25:50;95360.53;;;12.74;61.99
37892;BME280;45797;47.466;9.486;2023-04-24T10:30:51;95357.94;;;12.84;61.79
37892;BME280;45797;47.466;9.486;2023-04-24T10:35:55;95372.38;;;12.99;61.36
37892;BME280;45797;47.466;9.486;2023-04-24T10:41:09;95359.84;;;13.41;60.84
37892;BME280;45797;47.466;9.486;2023-04-24T10:46:21;95373.66;;;13.53;60.17
37892;BME280;45797;47.466;9.486;2023-04-24T10:51:23;95360.63;;;13.71;60.20
37892;BME280;45797;47.466;9.486;2023-04-24T10:56:23;95364.34;;;13.97;59.23
37892;BME280;45797;47.466;9.486;2023-04-24T11:01:33;95350.72;;;14.21;58.79
37892;BME280;45797;47.466;9.486;2023-04-24T11:06:36;95342.66;;;14.60;58.08
37892;BME280;45797;47.466;9.486;2023-04-24T11:11:37;95359.16;;;14.90;57.64
37892;BME280;45797;47.466;9.486;2023-04-24T11:16:51;95363.81;;;14.68;58.13
37892;BME280;45797;47.466;9.486;2023-04-24T11:21:56;95358.34;;;14.62;58.50
37892;BME280;45797;47.466;9.486;2023-04-24T11:27:04;95350.50;;;14.97;57.83
37892;BME280;45797;47.466;9.486;2023-04-24T11:32:25;95360.09;;;15.34;57.24
37892;BME280;45797;47.466;9.486;2023-04-24T11:37:28;95354.53;;;15.37;56.91
37892;BME280;45797;47.466;9.486;2023-04-24T11:42:34;95351.56;;;15.22;56.91
37892;BME280;45797;47.466;9.486;2023-04-24T11:47:34;95360.41;;;14.85;57.63
37892;BME280;45797;47.466;9.486;2023-04-24T11:52:39;95353.81;;;14.99;57.21
37892;BME280;45797;47.466;9.486;2023-04-24T11:57:48;95348.56;;;15.17;56.40
37892;BME280;45797;47.466;9.486;2023-04-24T12:02:49;95357.47;;;15.34;56.18
37892;BME280;45797;47.466;9.486;2023-04-24T12:07:50;95360.47;;;15.57;55.64
37892;BME280;45797;47.466;9.486;2023-04-24T12:12:50;95347.28;;;15.57;55.52
37892;BME280;45797;47.466;9.486;2023-04-24T12:17:52;95340.28;;;15.48;55.63
37892;BME280;45797;47.466;9.486;2023-04-24T12:22:54;95353.78;;;15.45;55.46
37892;BME280;45797;47.466;9.486;2023-04-24T12:33:04;95356.22;;;14.93;56.06
37892;BME280;45797;47.466;9.486;2023-04-24T12:38:08;95362.47;;;14.92;56.31
37892;BME280;45797;47.466;9.486;2023-04-24T12:43:17;95363.88;;;14.86;56.34
37892;BME280;45797;47.466;9.486;2023-04-24T12:48:17;95372.25;;;14.81;56.16
37892;BME280;45797;47.466;9.486;2023-04-24T12:53:17;95370.19;;;14.75;56.25
37892;BME280;45797;47.466;9.486;2023-04-24T12:58:21;95374.31;;;14.78;56.31
37892;BME280;45797;47.466;9.486;2023-04-24T13:03:21;95350.22;;;15.18;55.47
37892;BME280;45797;47.466;9.486;2023-04-24T13:08:22;95340.75;;;15.61;54.52
37892;BME280;45797;47.466;9.486;2023-04-24T13:13:22;95325.53;;;15.81;54.11
37892;BME280;45797;47.466;9.486;2023-04-24T13:18:22;95344.72;;;15.83;54.08
37892;BME280;45797;47.466;9.486;2023-04-24T13:23:22;95335.16;;;15.64;54.39
37892;BME280;45797;47.466;9.486;2023-04-24T13:28:23;95333.78;;;15.60;54.30
37892;BME280;45797;47.466;9.486;2023-04-24T13:33:24;95336.81;;;15.65;54.38
37892;BME280;45797;47.466;9.486;2023-04-24T13:38:24;95334.19;;;15.65;54.22
37892;BME280;45797;47.466;9.486;2023-04-24T13:43:24;95328.97;;;16.25;53.23
37892;BME280;45797;47.466;9.486;2023-04-24T13:48:25;95325.09;;;16.71;52.28
37892;BME280;45797;47.466;9.486;2023-04-24T13:53:25;95337.81;;;16.42;52.85
37892;BME280;45797;47.466;9.486;2023-04-24T13:58:25;95331.44;;;16.00;53.31
37892;BME280;45797;47.466;9.486;2023-04-24T14:03:25;95336.81;;;15.47;54.17
37892;BME280;45797;47.466;9.486;2023-04-24T14:08:25;95336.19;;;15.00;55.58
37892;BME280;45797;47.466;9.486;2023-04-24T14:13:26;95331.59;;;15.02;55.73
37892;BME280;45797;47.466;9.486;2023-04-24T14:18:27;95327.75;;;15.50;54.75
37892;BME280;45797;47.466;9.486;2023-04-24T14:23:27;95327.09;;;15.91;53.85
37892;BME280;45797;47.466;9.486;2023-04-24T14:28:27;95328.31;;;16.65;52.79
37892;BME280;45797;47.466;9.486;2023-04-24T14:33:28;95317.28;;;17.28;51.69
37892;BME280;45797;47.466;9.486;2023-04-24T14:38:28;95308.34;;;17.62;51.17
37892;BME280;45797;47.466;9.486;2023-04-24T14:43:29;95303.91;;;17.54;51.00
37892;BME280;45797;47.466;9.486;2023-04-24T14:48:29;95310.19;;;17.37;51.85
37892;BME280;45797;47.466;9.486;2023-04-24T14:53:30;95315.75;;;17.01;52.36
37892;BME280;45797;47.466;9.486;2023-04-24T14:58:30;95307.09;;;16.83;52.79
37892;BME280;45797;47.466;9.486;2023-04-24T15:03:30;95301.00;;;16.56;53.29
37892;BME280;45797;47.466;9.486;2023-04-24T15:08:30;95302.69;;;16.66;52.62
37892;BME280;45797;47.466;9.486;2023-04-24T15:13:31;95297.25;;;17.09;51.93
37892;BME280;45797;47.466;9.486;2023-04-24T15:18:31;95292.13;;;17.32;51.44
37892;BME280;45797;47.466;9.486;2023-04-24T15:23:31;95299.44;;;17.55;51.51
37892;BME280;45797;47.466;9.486;2023-04-24T15:28:31;95305.88;;;17.60;51.39
37892;BME280;45797;47.466;9.486;2023-04-24T15:33:31;95319.88;;;17.04;52.15
37892;BME280;45797;47.466;9.486;2023-04-24T15:38:32;95311.59;;;16.56;53.33
37892;BME280;45797;47.466;9.486;2023-04-24T15:43:32;95318.88;;;16.20;53.64
37892;BME280;45797;47.466;9.486;2023-04-24T15:48:34;95326.19;;;15.75;54.34
37892;BME280;45797;47.466;9.486;2023-04-24T15:53:34;95339.81;;;15.34;54.86
37892;BME280;45797;47.466;9.486;2023-04-24T15:58:34;95342.69;;;14.78;55.67
37892;BME280;45797;47.466;9.486;2023-04-24T16:03:34;95342.22;;;14.65;55.92
37892;BME280;45797;47.466;9.486;2023-04-24T16:08:34;95336.13;;;15.63;53.87
37892;BME280;45797;47.466;9.486;2023-04-24T16:13:35;95318.41;;;19.18;47.48
37892;BME280;45797;47.466;9.486;2023-04-24T16:18:35;95324.13;;;20.66;44.55
37892;BME280;45797;47.466;9.486;2023-04-24T16:23:35;95320.78;;;21.65;43.89
37892;BME280;45797;47.466;9.486;2023-04-24T16:28:35;95321.72;;;25.04;38.88
37892;BME280;45797;47.466;9.486;2023-04-24T16:33:36;95320.69;;;27.00;36.60
37892;BME280;45797;47.466;9.486;2023-04-24T16:38:37;95316.53;;;26.42;38.42
37892;BME280;45797;47.466;9.486;2023-04-24T16:43:37;95323.28;;;24.34;42.01
37892;BME280;45797;47.466;9.486;2023-04-24T16:48:37;95320.97;;;23.04;44.38
37892;BME280;45797;47.466;9.486;2023-04-24T16:53:38;95318.22;;;22.00;45.85
37892;BME280;45797;47.466;9.486;2023-04-24T16:58:38;95316.66;;;24.63;41.24
37892;BME280;45797;47.466;9.486;2023-04-24T17:03:38;95307.31;;;27.78;36.93
37892;BME280;45797;47.466;9.486;2023-04-24T17:08:39;95310.25;;;28.77;35.66
37892;BME280;45797;47.466;9.486;2023-04-24T17:13:39;95306.94;;;26.90;38.35
37892;BME280;45797;47.466;9.486;2023-04-24T17:18:39;95315.47;;;24.00;42.90
37892;BME280;45797;47.466;9.486;2023-04-24T17:23:39;95324.22;;;21.59;46.85
37892;BME280;45797;47.466;9.486;2023-04-24T17:28:40;95328.28;;;19.78;49.53
37892;BME280;45797;47.466;9.486;2023-04-24T17:33:40;95346.56;;;18.41;51.32
37892;BME280;45797;47.466;9.486;2023-04-24T17:38:40;95389.34;;;17.64;52.02
37892;BME280;45797;47.466;9.486;2023-04-24T17:43:41;95365.50;;;17.81;51.50
37892;BME280;45797;47.466;9.486;2023-04-24T17:48:41;95348.88;;;19.61;47.27
37892;BME280;45797;47.466;9.486;2023-04-24T17:53:41;95344.88;;;20.85;44.90
37892;BME280;45797;47.466;9.486;2023-04-24T17:58:41;95355.03;;;19.54;47.25
37892;BME280;45797;47.466;9.486;2023-04-24T18:03:42;95359.88;;;18.08;49.86
37892;BME280;45797;47.466;9.486;2023-04-24T18:08:45;95364.00;;;16.87;51.97
37892;BME280;45797;47.466;9.486;2023-04-24T18:13:45;95368.50;;;15.83;53.57
37892;BME280;45797;47.466;9.486;2023-04-24T18:18:45;95377.00;;;14.96;55.09
37892;BME280;45797;47.466;9.486;2023-04-24T18:23:45;95371.19;;;14.27;55.78
37892;BME280;45797;47.466;9.486;2023-04-24T18:28:46;95377.00;;;13.65;56.59
37892;BME280;45797;47.466;9.486;2023-04-24T18:33:46;95385.78;;;13.15;57.19
37892;BME280;45797;47.466;9.486;2023-04-24T18:38:46;95379.50;;;12.78;57.45
37892;BME280;45797;47.466;9.486;2023-04-24T18:43:47;95392.66;;;12.47;57.95
37892;BME280;45797;47.466;9.486;2023-04-24T18:48:47;95393.22;;;12.20;58.38
37892;BME280;45797;47.466;9.486;2023-04-24T18:53:47;95391.75;;;11.97;58.43
37892;BME280;45797;47.466;9.486;2023-04-24T18:58:47;95387.16;;;11.78;58.41
37892;BME280;45797;47.466;9.486;2023-04-24T19:03:48;95398.91;;;11.63;58.92
37892;BME280;45797;47.466;9.486;2023-04-24T19:08:48;95396.50;;;11.50;58.80
37892;BME280;45797;47.466;9.486;2023-04-24T19:13:49;95402.22;;;11.44;58.78
37892;BME280;45797;47.466;9.486;2023-04-24T19:18:50;95419.03;;;11.41;58.73
37892;BME280;45797;47.466;9.486;2023-04-24T19:23:50;95416.44;;;11.41;58.46
37892;BME280;45797;47.466;9.486;2023-04-24T19:28:51;95426.91;;;11.41;58.29
37892;BME280;45797;47.466;9.486;2023-04-24T19:33:52;95430.94;;;11.45;58.24
37892;BME280;45797;47.466;9.486;2023-04-24T19:38:52;95431.69;;;11.48;58.15
37892;BME280;45797;47.466;9.486;2023-04-24T19:43:53;95434.03;;;11.51;58.10
37892;BME280;45797;47.466;9.486;2023-04-24T19:48:53;95434.88;;;11.51;58.07
37892;BME280;45797;47.466;9.486;2023-04-24T19:53:53;95433.78;;;11.54;58.00
37892;BME280;45797;47.466;9.486;2023-04-24T19:58:53;95438.06;;;11.55;58.06
37892;BME280;45797;47.466;9.486;2023-04-24T20:03:53;95437.97;;;11.56;58.02
37892;BME280;45797;47.466;9.486;2023-04-24T20:08:54;95434.38;;;11.57;57.88
37892;BME280;45797;47.466;9.486;2023-04-24T20:13:54;95445.44;;;11.61;57.84
37892;BME280;45797;47.466;9.486;2023-04-24T20:18:55;95435.66;;;11.63;57.95
37892;BME280;45797;47.466;9.486;2023-04-24T20:23:55;95432.91;;;11.64;58.06
37892;BME280;45797;47.466;9.486;2023-04-24T20:28:55;95436.34;;;11.65;57.98
37892;BME280;45797;47.466;9.486;2023-04-24T20:33:55;95427.53;;;11.66;57.87
37892;BME280;45797;47.466;9.486;2023-04-24T20:38:55;95427.66;;;11.64;58.14
37892;BME280;45797;47.466;9.486;2023-04-24T20:43:57;95433.72;;;11.65;58.23
37892;BME280;45797;47.466;9.486;2023-04-24T20:48:57;95437.19;;;11.65;58.05
37892;BME280;45797;47.466;9.486;2023-04-24T20:53:57;95436.34;;;11.65;58.17
37892;BME280;45797;47.466;9.486;2023-04-24T20:58:57;95428.47;;;11.65;58.22
37892;BME280;45797;47.466;9.486;2023-04-24T21:03:57;95431.84;;;11.67;58.30
37892;BME280;45797;47.466;9.486;2023-04-24T21:08:57;95429.78;;;11.70;58.27
37892;BME280;45797;47.466;9.486;2023-04-24T21:13:58;95426.19;;;11.71;58.16
37892;BME280;45797;47.466;9.486;2023-04-24T21:18:58;95420.69;;;11.74;58.30
37892;BME280;45797;47.466;9.486;2023-04-24T21:23:59;95416.28;;;11.75;57.87
37892;BME280;45797;47.466;9.486;2023-04-24T21:29:00;95411.28;;;11.72;58.30
37892;BME280;45797;47.466;9.486;2023-04-24T21:34:00;95403.53;;;11.70;58.29
37892;BME280;45797;47.466;9.486;2023-04-24T21:39:00;95395.81;;;11.69;58.50
37892;BME280;45797;47.466;9.486;2023-04-24T21:44:01;95400.09;;;11.70;58.23
37892;BME280;45797;47.466;9.486;2023-04-24T21:49:01;95392.47;;;11.67;58.80
37892;BME280;45797;47.466;9.486;2023-04-24T21:54:01;95395.59;;;11.61;58.82
37892;BME280;45797;47.466;9.486;2023-04-24T21:59:02;95389.06;;;11.55;58.74
37892;BME280;45797;47.466;9.486;2023-04-24T22:04:02;95379.78;;;11.51;59.10
37892;BME280;45797;47.466;9.486;2023-04-24T22:09:03;95382.81;;;11.47;59.17
37892;BME280;45797;47.466;9.486;2023-04-24T22:14:04;95378.75;;;11.42;58.96
37892;BME280;45797;47.466;9.486;2023-04-24T22:19:06;95366.75;;;11.40;59.30
37892;BME280;45797;47.466;9.486;2023-04-24T22:24:07;95366.59;;;11.41;59.29
37892;BME280;45797;47.466;9.486;2023-04-24T22:29:07;95356.38;;;11.38;59.39
37892;BME280;45797;47.466;9.486;2023-04-24T22:34:08;95359.97;;;11.37;59.52
37892;BME280;45797;47.466;9.486;2023-04-24T22:39:08;95348.88;;;11.34;59.30
37892;BME280;45797;47.466;9.486;2023-04-24T22:44:09;95346.38;;;11.32;59.59
37892;BME280;45797;47.466;9.486;2023-04-24T22:49:10;95346.66;;;11.29;59.57
37892;BME280;45797;47.466;9.486;2023-04-24T22:54:10;95347.72;;;11.27;59.75
37892;BME280;45797;47.466;9.486;2023-04-24T22:59:10;95345.22;;;11.25;59.38
37892;BME280;45797;47.466;9.486;2023-04-24T23:04:10;95334.88;;;11.24;59.47
37892;BME280;45797;47.466;9.486;2023-04-24T23:09:11;95326.16;;;11.23;59.61
37892;BME280;45797;47.466;9.486;2023-04-24T23:14:11;95327.13;;;11.22;59.56
37892;BME280;45797;47.466;9.486;2023-04-24T23:19:11;95314.97;;;11.21;59.77
37892;BME280;45797;47.466;9.486;2023-04-24T23:24:11;95315.94;;;11.20;59.77
37892;BME280;45797;47.466;9.486;2023-04-24T23:29:13;95310.94;;;11.17;59.96
37892;BME280;45797;47.466;9.486;2023-04-24T23:34:13;95313.81;;;11.14;59.85
37892;BME280;45797;47.466;9.486;2023-04-24T23:39:15;95304.41;;;11.11;60.01
37892;BME280;45797;47.466;9.486;2023-04-24T23:44:15;95305.94;;;11.14;60.16
37892;BME280;45797;47.466;9.486;2023-04-24T23:49:15;95311.91;;;11.16;59.87
37892;BME280;45797;47.466;9.486;2023-04-24T23:54:16;95305.69;;;11.17;59.47
37892;BME280;45797;47.466;9.486;2023-04-24T23:59:16;95305.47;;;11.20;59.70
